createdAt,value
2017-07-23T00:01:46.937Z,22.40
2017-07-23T00:04:15.525Z,29.43
2017-07-23T00:06:44.096Z,16.30
2017-07-23T00:09:13.605Z,26.67
2017-07-23T00:11:42.873Z,21.33
2017-07-23T00:14:12.080Z,23.43
2017-07-23T00:16:40.843Z,21.43
2017-07-23T00:19:09.467Z,21.03
2017-07-23T00:21:38.208Z,22.83
2017-07-23T00:24:09.364Z,18.83
2017-07-23T00:26:37.798Z,30.37
2017-07-23T00:29:06.349Z,44.57
2017-07-23T00:31:35.156Z,34.93
2017-07-23T00:34:03.604Z,27.47
2017-07-23T00:36:32.312Z,18.00
2017-07-23T00:39:00.879Z,41.10
2017-07-23T00:41:30.133Z,41.23
2017-07-23T00:43:59.217Z,28.47
2017-07-23T00:46:28.536Z,33.93
2017-07-23T00:48:56.858Z,28.80
2017-07-23T00:51:26.077Z,26.80
2017-07-23T00:53:54.860Z,26.20
2017-07-23T00:56:23.236Z,32.33
2017-07-23T00:58:51.565Z,32.80
2017-07-23T01:01:20.257Z,35.97
2017-07-23T01:03:48.565Z,32.43
2017-07-23T01:06:17.075Z,39.00
2017-07-23T01:08:45.804Z,36.50
2017-07-23T01:11:15.239Z,29.73
2017-07-23T01:13:44.474Z,36.23
2017-07-23T01:16:13.382Z,27.07
2017-07-23T01:18:41.858Z,31.07
2017-07-23T01:21:10.557Z,31.37
2017-07-23T01:23:40.148Z,41.03
2017-07-23T01:26:09.320Z,34.83
2017-07-23T01:28:38.064Z,23.77
2017-07-23T01:31:07.283Z,31.30
2017-07-23T01:33:36.567Z,35.83
2017-07-23T01:36:05.470Z,27.73
2017-07-23T01:38:33.949Z,43.90
2017-07-23T01:41:03.205Z,40.30
2017-07-23T01:43:31.527Z,25.93
2017-07-23T01:46:00.212Z,37.20
2017-07-23T01:48:28.551Z,38.40
2017-07-23T01:50:56.917Z,41.47
2017-07-23T01:53:25.493Z,33.10
2017-07-23T01:55:53.948Z,27.87
2017-07-23T01:58:22.306Z,42.73
2017-07-23T02:00:51.209Z,51.00
2017-07-23T02:03:19.518Z,32.13
2017-07-23T02:05:47.877Z,41.30
2017-07-23T02:08:16.507Z,39.00
2017-07-23T02:10:45.788Z,35.83
2017-07-23T02:13:14.300Z,36.43
2017-07-23T02:15:43.032Z,29.93
2017-07-23T02:18:11.501Z,40.00
2017-07-23T02:20:40.925Z,42.60
2017-07-23T02:23:09.956Z,31.10
2017-07-23T02:25:39.104Z,39.67
2017-07-23T02:28:08.384Z,44.53
2017-07-23T02:30:37.482Z,51.40
2017-07-23T02:33:06.383Z,45.43
2017-07-23T02:35:35.757Z,53.13
2017-07-23T02:38:04.372Z,45.03
2017-07-23T02:40:33.480Z,61.17
2017-07-23T02:43:02.756Z,71.93
2017-07-23T02:45:31.956Z,50.17
2017-07-23T02:48:00.267Z,56.93
2017-07-23T02:50:28.578Z,65.37
2017-07-23T02:52:57.211Z,70.33
2017-07-23T02:55:25.539Z,50.53
2017-07-23T02:57:53.952Z,57.77
2017-07-23T03:00:22.770Z,61.57
2017-07-23T03:02:51.114Z,56.23
2017-07-23T03:05:19.460Z,62.33
2017-07-23T03:07:48.714Z,59.63
2017-07-23T03:10:17.332Z,54.50
2017-07-23T03:12:46.000Z,54.93
2017-07-23T03:15:14.968Z,61.27
2017-07-23T03:17:43.404Z,72.00
2017-07-23T03:20:12.032Z,66.70
2017-07-23T03:22:40.862Z,57.47
2017-07-23T03:25:10.444Z,54.30
2017-07-23T03:27:39.800Z,74.20
2017-07-23T03:30:09.394Z,56.43
2017-07-23T03:32:38.490Z,60.77
2017-07-23T03:35:08.097Z,58.93
2017-07-23T03:37:37.676Z,71.77
2017-07-23T03:40:07.506Z,61.93
2017-07-23T03:42:36.636Z,56.37
2017-07-23T03:45:06.148Z,46.57
2017-07-23T03:47:36.222Z,55.90
2017-07-23T03:50:04.905Z,69.67
2017-07-23T03:52:34.581Z,52.50
2017-07-23T03:55:03.241Z,60.53
2017-07-23T03:57:31.660Z,70.07
2017-07-23T04:00:01.407Z,64.30
2017-07-23T04:02:29.899Z,62.57
2017-07-23T04:05:00.992Z,46.03
2017-07-23T04:07:29.670Z,49.43
2017-07-23T04:09:58.028Z,50.57
2017-07-23T04:12:26.407Z,55.03
2017-07-23T04:14:55.120Z,41.20
2017-07-23T04:17:23.702Z,58.37
2017-07-23T04:19:52.975Z,48.90
2017-07-23T04:22:21.807Z,56.53
2017-07-23T04:24:50.169Z,48.93
2017-07-23T04:27:18.549Z,55.93
2017-07-23T04:29:47.337Z,53.60
2017-07-23T04:32:15.841Z,41.93
2017-07-23T04:34:44.313Z,46.83
2017-07-23T04:37:13.113Z,42.77
2017-07-23T04:39:41.720Z,52.30
2017-07-23T04:42:11.073Z,46.07
2017-07-23T04:44:40.140Z,41.87
2017-07-23T04:47:08.878Z,45.50
2017-07-23T04:49:37.842Z,50.23
2017-07-23T04:52:07.768Z,44.43
2017-07-23T04:54:36.997Z,41.43
2017-07-23T04:57:06.349Z,51.90
2017-07-23T04:59:36.014Z,44.93
2017-07-23T05:02:05.285Z,50.60
2017-07-23T05:04:33.752Z,50.83
2017-07-23T05:07:02.890Z,47.03
2017-07-23T05:09:31.232Z,41.53
2017-07-23T05:12:00.499Z,41.13
2017-07-23T05:14:29.696Z,42.20
2017-07-23T05:16:58.039Z,38.67
2017-07-23T05:19:27.132Z,37.67
2017-07-23T05:21:55.850Z,38.60
2017-07-23T05:24:24.193Z,44.10
2017-07-23T05:26:52.505Z,35.33
2017-07-23T05:29:21.900Z,48.17
2017-07-23T05:31:50.983Z,34.10
2017-07-23T05:34:19.447Z,43.03
2017-07-23T05:36:48.887Z,49.37
2017-07-23T05:39:17.305Z,39.90
2017-07-23T05:41:45.923Z,39.00
2017-07-23T05:44:15.703Z,39.33
2017-07-23T05:46:44.165Z,37.33
2017-07-23T05:49:12.779Z,56.00
2017-07-23T05:51:41.729Z,46.87
2017-07-23T05:54:11.134Z,42.23
2017-07-23T05:56:39.969Z,35.90
2017-07-23T05:59:10.043Z,38.50
2017-07-23T06:01:39.201Z,52.67
2017-07-23T06:04:09.200Z,39.50
2017-07-23T06:06:38.776Z,40.90
2017-07-23T06:09:07.872Z,47.67
2017-07-23T06:11:36.912Z,40.87
2017-07-23T06:14:06.665Z,41.63
2017-07-23T06:16:36.435Z,34.00
2017-07-23T06:19:05.342Z,42.23
2017-07-23T06:21:35.016Z,41.40
2017-07-23T06:24:03.652Z,43.60
2017-07-23T06:26:32.334Z,38.13
2017-07-23T06:29:00.869Z,45.80
2017-07-23T06:31:29.199Z,53.27
2017-07-23T06:33:58.267Z,47.27
2017-07-23T06:36:27.532Z,39.80
2017-07-23T06:38:55.850Z,43.07
2017-07-23T06:41:24.186Z,34.77
2017-07-23T06:43:53.606Z,33.33
2017-07-23T06:46:21.933Z,35.23
2017-07-23T06:48:51.023Z,38.50
2017-07-23T06:51:19.480Z,32.83
2017-07-23T06:53:47.797Z,35.77
2017-07-23T06:56:16.306Z,41.97
2017-07-23T06:58:45.027Z,39.43
2017-07-23T07:01:13.620Z,42.83
2017-07-23T07:03:42.363Z,43.17
2017-07-23T07:06:11.558Z,46.80
2017-07-23T07:08:40.156Z,42.87
2017-07-23T07:11:09.006Z,43.47
2017-07-23T07:13:37.862Z,44.30
2017-07-23T07:16:06.399Z,41.83
2017-07-23T07:18:35.832Z,38.43
2017-07-23T07:21:04.929Z,38.30
2017-07-23T07:23:34.214Z,44.73
2017-07-23T07:26:02.719Z,39.07
2017-07-23T07:28:31.994Z,37.87
2017-07-23T07:31:00.337Z,36.53
2017-07-23T07:33:28.647Z,29.90
2017-07-23T07:35:57.224Z,32.93
2017-07-23T07:38:25.576Z,35.20
2017-07-23T07:40:53.921Z,39.13
2017-07-23T07:43:23.168Z,29.30
2017-07-23T07:45:51.480Z,12.80
2017-07-23T07:48:19.825Z,5.70
2017-07-23T07:50:48.669Z,5.70
2017-07-23T07:53:17.101Z,5.70
2017-07-23T07:55:45.559Z,4.83
2017-07-23T07:58:14.667Z,6.90
2017-07-23T08:00:44.020Z,5.13
2017-07-23T08:03:12.568Z,4.90
2017-07-23T08:05:41.521Z,8.90
2017-07-23T08:08:09.969Z,21.80
2017-07-23T08:10:38.617Z,17.30
2017-07-23T08:13:07.705Z,10.33
2017-07-23T08:15:36.375Z,7.73
2017-07-23T08:18:04.959Z,15.17
2017-07-23T08:20:33.822Z,12.10
2017-07-23T08:23:02.225Z,9.73
2017-07-23T08:25:31.384Z,11.10
2017-07-23T08:28:00.386Z,9.63
2017-07-23T08:30:28.753Z,8.70
2017-07-23T08:32:57.824Z,15.30
2017-07-23T08:35:26.598Z,16.33
2017-07-23T08:37:55.231Z,16.20
2017-07-23T08:40:23.534Z,18.43
2017-07-23T08:42:52.860Z,13.17
2017-07-23T08:45:21.237Z,11.97
2017-07-23T08:47:49.590Z,12.90
2017-07-23T08:50:18.585Z,9.67
2017-07-23T08:52:47.042Z,10.30
2017-07-23T08:55:16.470Z,15.83
2017-07-23T08:57:45.335Z,12.77
2017-07-23T09:00:14.896Z,11.17
2017-07-23T09:02:43.481Z,14.90
2017-07-23T09:05:12.272Z,8.53
2017-07-23T09:07:40.890Z,12.73
2017-07-23T09:10:09.369Z,10.10
2017-07-23T09:12:39.444Z,11.10
2017-07-23T09:15:08.206Z,11.97
2017-07-23T09:17:36.745Z,18.63
2017-07-23T09:20:06.737Z,11.57
2017-07-23T09:22:37.549Z,9.57
2017-07-23T09:25:08.130Z,7.87
2017-07-23T09:27:37.914Z,8.63
2017-07-23T09:30:06.779Z,15.93
2017-07-23T09:32:35.677Z,11.50
2017-07-23T09:35:04.286Z,9.10
2017-07-23T09:37:32.833Z,9.90
2017-07-23T09:40:01.451Z,9.27
2017-07-23T09:42:30.576Z,11.23
2017-07-23T09:44:58.886Z,13.60
2017-07-23T09:47:27.410Z,9.23
2017-07-23T09:49:55.734Z,7.80
2017-07-23T09:52:24.863Z,8.73
2017-07-23T09:54:53.346Z,7.70
2017-07-23T09:57:21.672Z,6.70
2017-07-23T09:59:49.995Z,4.47
2017-07-23T10:02:19.424Z,5.43
2017-07-23T10:04:47.845Z,5.10
2017-07-23T10:07:16.959Z,4.20
2017-07-23T10:09:45.716Z,4.40
2017-07-23T10:12:14.279Z,4.60
2017-07-23T10:14:42.869Z,3.83
2017-07-23T10:17:11.537Z,5.87
2017-07-23T10:19:40.125Z,4.07
2017-07-23T10:22:09.245Z,15.20
2017-07-23T10:24:38.312Z,3.70
2017-07-23T10:27:07.888Z,6.90
2017-07-23T10:29:36.264Z,6.13
2017-07-23T10:32:05.073Z,3.93
2017-07-23T10:34:33.502Z,3.57
2017-07-23T10:37:02.219Z,3.60
2017-07-23T10:39:32.049Z,3.60
2017-07-23T10:42:00.407Z,2.93
2017-07-23T10:44:28.734Z,5.10
2017-07-23T10:46:57.567Z,2.30
2017-07-23T10:49:26.887Z,2.33
2017-07-23T10:51:55.980Z,1.70
2017-07-23T10:54:25.189Z,1.83
2017-07-23T10:56:53.518Z,2.17
2017-07-23T10:59:22.639Z,4.83
2017-07-23T11:01:51.140Z,1.83
2017-07-23T11:04:19.465Z,1.77
2017-07-23T11:06:47.801Z,2.00
2017-07-23T11:09:16.323Z,3.80
2017-07-23T11:11:44.637Z,2.47
2017-07-23T11:14:13.116Z,2.83
2017-07-23T11:16:41.521Z,1.90
2017-07-23T11:19:09.902Z,4.53
2017-07-23T11:21:38.395Z,2.10
2017-07-23T11:24:07.072Z,1.93
2017-07-23T11:26:35.453Z,1.90
2017-07-23T11:29:03.805Z,1.53
2017-07-23T11:31:32.324Z,1.60
2017-07-23T11:34:01.559Z,2.87
2017-07-23T11:36:29.881Z,3.07
2017-07-23T11:38:58.382Z,1.10
2017-07-23T11:41:26.729Z,1.77
2017-07-23T11:43:55.807Z,1.83
2017-07-23T11:46:24.452Z,2.03
2017-07-23T11:48:52.781Z,1.50
2017-07-23T11:51:21.111Z,2.00
2017-07-23T11:53:49.814Z,2.53
2017-07-23T11:56:18.117Z,3.17
2017-07-23T11:58:46.438Z,2.10
2017-07-23T12:01:15.263Z,2.00
2017-07-23T12:03:43.706Z,2.60
2017-07-23T12:06:12.988Z,1.50
2017-07-23T12:08:41.672Z,2.50
2017-07-23T12:11:10.797Z,13.00
2017-07-23T12:13:39.541Z,1.70
2017-07-23T12:16:08.647Z,3.10
2017-07-23T12:18:37.264Z,2.20
2017-07-23T12:21:05.944Z,2.10
2017-07-23T12:23:35.335Z,3.37
2017-07-23T12:26:03.961Z,2.63
2017-07-23T12:28:32.550Z,4.80
2017-07-23T12:31:01.182Z,5.10
2017-07-23T12:33:30.442Z,4.93
2017-07-23T12:35:59.543Z,3.10
2017-07-23T12:38:28.062Z,5.73
2017-07-23T12:40:56.534Z,4.70
2017-07-23T12:43:24.966Z,4.80
2017-07-23T12:45:53.623Z,2.67
2017-07-23T12:48:21.959Z,3.20
2017-07-23T12:50:50.341Z,5.73
2017-07-23T12:53:19.118Z,4.10
2017-07-23T12:55:47.578Z,2.83
2017-07-23T12:58:16.164Z,4.40
2017-07-23T13:00:44.923Z,5.63
2017-07-23T13:03:13.488Z,2.00
2017-07-23T13:05:42.113Z,2.97
2017-07-23T13:08:10.702Z,5.00
2017-07-23T13:10:39.313Z,4.90
2017-07-23T13:13:07.908Z,4.50
2017-07-23T13:15:36.894Z,9.73
2017-07-23T13:18:06.169Z,5.53
2017-07-23T13:20:34.787Z,2.37
2017-07-23T13:23:03.612Z,4.77
2017-07-23T13:25:31.932Z,5.90
2017-07-23T13:28:00.470Z,5.93
2017-07-23T13:30:29.065Z,2.20
2017-07-23T13:32:57.379Z,4.47
2017-07-23T13:35:25.713Z,8.23
2017-07-23T13:37:54.269Z,4.87
2017-07-23T13:40:22.577Z,2.50
2017-07-23T13:42:51.648Z,5.60
2017-07-23T13:45:20.372Z,4.10
2017-07-23T13:47:48.724Z,5.33
2017-07-23T13:50:17.293Z,10.53
2017-07-23T13:52:46.054Z,3.67
2017-07-23T13:55:14.427Z,2.73
2017-07-23T13:57:42.877Z,4.07
2017-07-23T14:00:11.981Z,5.77
2017-07-23T14:02:40.483Z,9.40
2017-07-23T14:05:09.872Z,7.00
2017-07-23T14:07:38.834Z,4.40
2017-07-23T14:10:07.277Z,10.23
2017-07-23T14:12:35.956Z,2.80
2017-07-23T14:15:06.336Z,4.60
2017-07-23T14:17:34.763Z,4.63
2017-07-23T14:20:03.361Z,1.27
2017-07-23T14:22:32.619Z,2.33
2017-07-23T14:25:00.948Z,4.80
2017-07-23T14:27:29.270Z,7.50
2017-07-23T14:29:58.684Z,3.00
2017-07-23T14:32:27.007Z,5.80
2017-07-23T14:34:55.314Z,5.27
2017-07-23T14:37:23.865Z,4.33
2017-07-23T14:39:52.210Z,3.57
2017-07-23T14:42:20.516Z,4.00
2017-07-23T14:44:48.864Z,4.93
2017-07-23T14:47:17.188Z,4.90
2017-07-23T14:49:46.479Z,9.43
2017-07-23T14:52:15.806Z,5.37
2017-07-23T14:54:44.311Z,7.50
2017-07-23T14:57:12.618Z,3.10
2017-07-23T14:59:41.361Z,7.50
2017-07-23T15:02:10.808Z,5.17
2017-07-23T15:04:39.590Z,7.83
2017-07-23T15:07:08.681Z,3.93
2017-07-23T15:09:37.494Z,5.07
2017-07-23T15:12:06.194Z,9.00
2017-07-23T15:14:34.854Z,2.77
2017-07-23T15:17:03.491Z,5.53
2017-07-23T15:19:31.978Z,5.13
2017-07-23T15:22:00.540Z,2.50
2017-07-23T15:24:29.000Z,8.20
2017-07-23T15:26:57.400Z,5.10
2017-07-23T15:29:25.844Z,9.43
2017-07-23T15:31:54.178Z,5.23
2017-07-23T15:34:23.308Z,6.43
2017-07-23T15:36:51.875Z,5.53
2017-07-23T15:39:20.212Z,10.03
2017-07-23T15:41:49.138Z,4.10
2017-07-23T15:44:17.774Z,5.40
2017-07-23T15:46:46.133Z,2.03
2017-07-23T15:49:14.669Z,3.37
2017-07-23T15:51:43.411Z,3.00
2017-07-23T15:54:12.713Z,6.83
2017-07-23T15:56:41.914Z,2.23
2017-07-23T15:59:11.288Z,6.80
2017-07-23T16:01:39.867Z,4.33
2017-07-23T16:04:08.503Z,3.43
2017-07-23T16:06:37.592Z,7.00
2017-07-23T16:09:06.473Z,4.20
2017-07-23T16:11:35.527Z,3.90
2017-07-23T16:14:04.180Z,5.60
2017-07-23T16:16:32.502Z,3.63
2017-07-23T16:19:01.578Z,1.97
2017-07-23T16:21:31.057Z,2.30
2017-07-23T16:23:59.426Z,6.33
2017-07-23T16:26:28.612Z,5.67
2017-07-23T16:28:57.322Z,4.50
2017-07-23T16:31:25.790Z,4.53
2017-07-23T16:33:55.067Z,2.93
2017-07-23T16:36:25.931Z,2.93
2017-07-23T16:38:54.303Z,7.53
2017-07-23T16:41:23.417Z,3.83
2017-07-23T16:43:52.057Z,5.30
2017-07-23T16:46:20.399Z,4.03
2017-07-23T16:48:48.761Z,3.43
2017-07-23T16:51:17.428Z,4.90
2017-07-23T16:53:45.885Z,4.80
2017-07-23T16:56:14.408Z,3.60
2017-07-23T16:58:43.388Z,4.70
2017-07-23T17:01:11.914Z,5.00
2017-07-23T17:03:40.305Z,4.07
2017-07-23T17:06:09.018Z,5.10
2017-07-23T17:08:37.699Z,8.80
2017-07-23T17:11:06.431Z,7.90
2017-07-23T17:13:35.305Z,6.17
2017-07-23T17:16:03.701Z,6.27
2017-07-23T17:18:32.056Z,2.10
2017-07-23T17:21:00.552Z,3.87
2017-07-23T17:23:28.871Z,13.00
2017-07-23T17:25:58.177Z,5.80
2017-07-23T17:28:26.741Z,5.13
2017-07-23T17:30:55.119Z,6.43
2017-07-23T17:33:23.451Z,4.67
2017-07-23T17:35:53.005Z,2.93
2017-07-23T17:38:22.320Z,5.63
2017-07-23T17:40:50.760Z,7.57
2017-07-23T17:43:19.394Z,2.83
2017-07-23T17:45:48.793Z,5.47
2017-07-23T17:48:17.169Z,7.20
2017-07-23T17:50:45.824Z,9.63
2017-07-23T17:53:14.165Z,8.20
2017-07-23T17:55:42.712Z,2.40
2017-07-23T17:58:11.632Z,3.77
2017-07-23T18:00:40.125Z,11.73
2017-07-23T18:03:08.722Z,13.30
2017-07-23T18:05:37.424Z,6.43
2017-07-23T18:08:06.007Z,3.00
2017-07-23T18:10:34.468Z,2.27
2017-07-23T18:13:03.383Z,6.80
2017-07-23T18:15:32.067Z,7.40
2017-07-23T18:18:00.425Z,8.33
2017-07-23T18:20:29.657Z,7.67
2017-07-23T18:22:57.992Z,6.90
2017-07-23T18:25:26.313Z,4.47
2017-07-23T18:27:55.073Z,3.30
2017-07-23T18:30:23.391Z,7.90
2017-07-23T18:32:51.713Z,8.00
2017-07-23T18:35:20.110Z,8.10
2017-07-23T18:37:48.487Z,2.37
2017-07-23T18:40:16.966Z,7.67
2017-07-23T18:42:45.630Z,3.80
2017-07-23T18:45:14.092Z,5.47
2017-07-23T18:47:42.529Z,3.37
2017-07-23T18:50:11.421Z,11.57
2017-07-23T18:52:40.397Z,2.90
2017-07-23T18:55:09.005Z,5.07
2017-07-23T18:57:38.022Z,3.30
2017-07-23T19:00:06.659Z,3.53
2017-07-23T19:02:35.464Z,8.63
2017-07-23T19:05:04.576Z,4.73
2017-07-23T19:07:33.157Z,4.30
2017-07-23T19:10:01.469Z,5.13
2017-07-23T19:12:30.704Z,2.10
2017-07-23T19:14:59.043Z,4.40
2017-07-23T19:17:27.387Z,4.67
2017-07-23T19:19:56.824Z,7.53
2017-07-23T19:22:25.169Z,4.27
2017-07-23T19:24:53.493Z,7.70
2017-07-23T19:27:22.825Z,6.33
2017-07-23T19:29:51.229Z,5.80
2017-07-23T19:32:19.564Z,8.20
2017-07-23T19:34:48.334Z,6.67
2017-07-23T19:37:16.698Z,4.97
2017-07-23T19:39:45.107Z,9.33
2017-07-23T19:42:13.898Z,5.53
2017-07-23T19:44:42.466Z,5.63
2017-07-23T19:47:10.961Z,5.83
2017-07-23T19:49:39.932Z,6.80
2017-07-23T19:52:08.480Z,4.57
2017-07-23T19:54:37.057Z,3.20
2017-07-23T19:57:05.854Z,5.57
2017-07-23T19:59:34.247Z,4.07
2017-07-23T20:02:02.561Z,14.07
2017-07-23T20:04:32.290Z,14.90
2017-07-23T20:07:00.781Z,5.80
2017-07-23T20:09:30.268Z,7.23
2017-07-23T20:11:59.040Z,7.33
2017-07-23T20:14:28.139Z,5.23
2017-07-23T20:16:57.453Z,5.57
2017-07-23T20:19:26.191Z,4.50
2017-07-23T20:21:55.277Z,5.23
2017-07-23T20:24:23.627Z,10.40
2017-07-23T20:26:53.094Z,3.60
2017-07-23T20:29:21.411Z,4.57
2017-07-23T20:31:49.849Z,7.27
2017-07-23T20:34:18.526Z,2.90
2017-07-23T20:36:46.909Z,5.53
2017-07-23T20:39:15.414Z,3.73
2017-07-23T20:41:44.216Z,3.90
2017-07-23T20:44:12.890Z,3.50
2017-07-23T20:46:42.135Z,6.20
2017-07-23T20:49:10.896Z,5.47
2017-07-23T20:51:39.256Z,5.60
2017-07-23T20:54:08.020Z,8.13
2017-07-23T20:56:36.847Z,5.70
2017-07-23T20:59:06.796Z,6.77
2017-07-23T21:01:35.304Z,4.17
2017-07-23T21:04:04.020Z,6.03
2017-07-23T21:06:32.420Z,6.20
2017-07-23T21:09:00.884Z,6.20
2017-07-23T21:11:29.531Z,5.33
2017-07-23T21:13:57.846Z,6.17
2017-07-23T21:16:26.183Z,5.80
2017-07-23T21:18:54.826Z,4.63
2017-07-23T21:21:24.828Z,5.57
2017-07-23T21:23:54.189Z,4.43
2017-07-23T21:26:23.676Z,7.63
2017-07-23T21:28:52.042Z,8.33
2017-07-23T21:31:21.075Z,9.53
2017-07-23T21:33:49.812Z,5.40
2017-07-23T21:36:18.189Z,5.60
2017-07-23T21:38:46.650Z,12.00
2017-07-23T21:41:15.640Z,19.47
2017-07-23T21:43:44.213Z,4.87
2017-07-23T21:46:12.648Z,8.53
2017-07-23T21:48:41.410Z,5.57
2017-07-23T21:51:10.245Z,3.43
2017-07-23T21:53:39.125Z,5.57
2017-07-23T21:56:09.412Z,3.33
2017-07-23T21:58:38.300Z,6.87
2017-07-23T22:01:07.831Z,5.27
2017-07-23T22:03:36.965Z,4.90
2017-07-23T22:06:05.594Z,11.07
2017-07-23T22:08:34.103Z,3.80
2017-07-23T22:11:02.873Z,6.50
2017-07-23T22:13:31.176Z,9.50
2017-07-23T22:16:00.245Z,6.90
2017-07-23T22:18:29.363Z,6.13
2017-07-23T22:20:57.721Z,5.83
2017-07-23T22:23:26.036Z,5.40
2017-07-23T22:25:54.907Z,8.23
2017-07-23T22:28:23.253Z,12.83
2017-07-23T22:30:51.568Z,5.30
2017-07-23T22:33:20.234Z,5.60
2017-07-23T22:35:48.944Z,6.20
2017-07-23T22:38:17.437Z,6.80
2017-07-23T22:40:46.081Z,12.33
2017-07-23T22:43:14.394Z,7.80
2017-07-23T22:45:42.857Z,9.03
2017-07-23T22:48:11.798Z,6.87
2017-07-23T22:50:40.414Z,6.20
2017-07-23T22:53:09.090Z,10.43
2017-07-23T22:55:38.153Z,4.70
2017-07-23T22:58:07.293Z,6.97
2017-07-23T23:00:36.057Z,6.90
2017-07-23T23:03:05.062Z,6.73
2017-07-23T23:05:33.586Z,10.90
2017-07-23T23:08:01.973Z,6.10
2017-07-23T23:10:30.437Z,4.77
2017-07-23T23:12:58.746Z,12.13
2017-07-23T23:15:27.821Z,5.70
2017-07-23T23:17:57.278Z,12.47
2017-07-23T23:20:25.597Z,4.43
2017-07-23T23:22:53.900Z,5.87
2017-07-23T23:25:22.543Z,7.07
2017-07-23T23:27:50.841Z,8.77
2017-07-23T23:30:19.201Z,10.70
2017-07-23T23:32:47.946Z,8.90
2017-07-23T23:35:16.381Z,6.47
2017-07-23T23:37:44.940Z,5.23
2017-07-23T23:40:13.813Z,9.50
2017-07-23T23:42:42.341Z,6.63
2017-07-23T23:45:10.849Z,12.47
2017-07-23T23:47:39.839Z,5.37
2017-07-23T23:50:09.109Z,12.90
2017-07-23T23:52:38.568Z,5.37
2017-07-23T23:55:07.421Z,10.30
2017-07-23T23:57:36.302Z,5.73
